createdAt,value
2022-09-09T00:01:06.161Z,48.45
2022-09-09T00:04:16.149Z,48.59
2022-09-09T00:07:29.547Z,48.42
2022-09-09T00:10:35.521Z,48.69
2022-09-09T00:13:34.911Z,48.73
2022-09-09T00:16:26.114Z,48.66
2022-09-09T00:19:23.215Z,48.70
2022-09-09T00:22:17.589Z,48.75
2022-09-09T00:25:17.903Z,49.92
2022-09-09T00:28:05.397Z,49.84
2022-09-09T00:30:50.822Z,51.18
2022-09-09T00:33:36.068Z,51.23
2022-09-09T00:36:27.426Z,51.59
2022-09-09T00:39:42.729Z,51.46
2022-09-09T00:42:38.401Z,51.37
2022-09-09T00:45:32.974Z,51.58
2022-09-09T00:48:19.943Z,52.28
2022-09-09T00:51:18.812Z,52.59
2022-09-09T00:54:25.309Z,52.58
2022-09-09T00:57:32.237Z,53.21
2022-09-09T01:00:28.022Z,53.41
2022-09-09T01:03:26.467Z,53.04
2022-09-09T01:06:30.021Z,52.96
2022-09-09T01:09:33.646Z,53.04
2022-09-09T01:12:26.277Z,52.88
2022-09-09T01:15:27.233Z,52.78
2022-09-09T01:18:15.550Z,52.74
2022-09-09T01:21:28.663Z,53.72
2022-09-09T01:25:26.771Z,53.41
2022-09-09T01:28:26.801Z,53.17
2022-09-09T01:31:20.785Z,53.43
2022-09-09T01:34:13.400Z,53.64
2022-09-09T01:37:08.923Z,53.02
2022-09-09T01:39:55.874Z,53.31
2022-09-09T01:42:41.531Z,53.42
2022-09-09T01:45:27.523Z,53.43
2022-09-09T01:48:12.791Z,53.25
2022-09-09T01:51:05.066Z,53.78
2022-09-09T01:53:50.909Z,54.11
2022-09-09T01:57:12.353Z,54.11
2022-09-09T02:00:11.541Z,54.29
2022-09-09T02:03:06.523Z,54.22
2022-09-09T02:06:36.041Z,53.71
2022-09-09T02:09:44.818Z,53.87
2022-09-09T02:12:31.666Z,53.78
2022-09-09T02:15:50.535Z,53.71
2022-09-09T02:19:02.054Z,53.70
2022-09-09T02:22:04.868Z,53.06
2022-09-09T02:24:55.931Z,53.16
2022-09-09T02:27:48.502Z,52.98
2022-09-09T02:30:35.845Z,53.07
2022-09-09T02:33:27.468Z,53.44
2022-09-09T02:36:17.168Z,52.70
2022-09-09T02:39:08.724Z,53.17
2022-09-09T02:41:54.823Z,53.35
2022-09-09T02:44:48.116Z,53.78
2022-09-09T02:47:45.020Z,53.57
2022-09-09T02:50:45.209Z,53.61
2022-09-09T02:53:38.607Z,53.50
2022-09-09T02:56:29.608Z,53.16
2022-09-09T02:59:16.934Z,53.33
2022-09-09T03:02:03.755Z,53.69
2022-09-09T03:04:52.809Z,53.36
2022-09-09T03:07:40.873Z,53.54
2022-09-09T03:10:27.846Z,53.35
2022-09-09T03:13:16.090Z,53.60
2022-09-09T03:16:01.751Z,53.59
2022-09-09T03:18:51.079Z,53.65
2022-09-09T03:21:36.802Z,53.34
2022-09-09T03:24:23.825Z,53.60
2022-09-09T03:27:09.041Z,53.59
2022-09-09T03:29:56.958Z,53.06
2022-09-09T03:32:48.903Z,53.57
2022-09-09T03:35:34.238Z,53.48
2022-09-09T03:38:20.227Z,53.80
2022-09-09T03:41:08.817Z,53.83
2022-09-09T03:43:54.901Z,53.68
2022-09-09T03:46:42.080Z,53.29
2022-09-09T03:49:29.558Z,53.42
2022-09-09T03:52:20.454Z,53.58
2022-09-09T03:55:10.155Z,53.30
2022-09-09T03:57:56.102Z,53.36
2022-09-09T04:00:46.180Z,53.27
2022-09-09T04:03:32.514Z,52.99
2022-09-09T04:06:18.924Z,52.92
2022-09-09T04:09:05.874Z,53.28
2022-09-09T04:11:54.047Z,52.96
2022-09-09T04:14:40.003Z,52.93
2022-09-09T04:17:26.560Z,52.84
2022-09-09T04:20:13.151Z,52.90
2022-09-09T04:22:58.748Z,52.95
2022-09-09T04:25:49.356Z,53.34
2022-09-09T04:28:37.288Z,53.16
2022-09-09T04:31:25.861Z,53.10
2022-09-09T04:34:14.994Z,53.24
2022-09-09T04:37:00.674Z,53.32
2022-09-09T04:39:46.968Z,53.16
2022-09-09T04:42:38.730Z,53.55
2022-09-09T04:45:24.169Z,53.69
2022-09-09T04:48:10.736Z,54.06
2022-09-09T04:50:57.744Z,54.53
2022-09-09T04:53:43.684Z,54.63
2022-09-09T04:56:30.961Z,54.24
2022-09-09T04:59:17.806Z,54.18
2022-09-09T05:02:07.296Z,53.86
2022-09-09T05:04:53.308Z,54.00
2022-09-09T05:07:38.739Z,54.24
2022-09-09T05:10:24.308Z,54.52
2022-09-09T05:13:10.335Z,54.47
2022-09-09T05:15:55.952Z,54.01
2022-09-09T05:18:43.966Z,54.32
2022-09-09T05:21:31.897Z,54.43
2022-09-09T05:24:18.145Z,54.25
2022-09-09T05:27:07.007Z,54.55
2022-09-09T05:29:52.812Z,54.79
2022-09-09T05:32:38.035Z,54.88
2022-09-09T05:35:24.027Z,55.16
2022-09-09T05:38:09.531Z,55.40
2022-09-09T05:40:54.875Z,55.49
2022-09-09T05:43:40.794Z,55.65
2022-09-09T05:46:27.104Z,55.79
2022-09-09T05:49:16.771Z,56.24
2022-09-09T05:52:04.904Z,56.41
2022-09-09T05:54:50.541Z,56.41
2022-09-09T05:57:35.934Z,56.18
2022-09-09T06:00:22.680Z,56.70
2022-09-09T06:03:14.521Z,56.62
2022-09-09T06:06:02.704Z,57.52
2022-09-09T06:08:51.982Z,58.36
2022-09-09T06:11:39.632Z,58.72
2022-09-09T06:14:26.582Z,58.84
2022-09-09T06:17:12.616Z,58.96
2022-09-09T06:19:58.700Z,59.15
2022-09-09T06:22:44.114Z,59.69
2022-09-09T06:25:29.746Z,59.74
2022-09-09T06:28:16.304Z,59.46
2022-09-09T06:31:07.193Z,59.21
2022-09-09T06:33:56.201Z,59.06
2022-09-09T06:36:43.769Z,59.18
2022-09-09T06:39:29.608Z,59.46
2022-09-09T06:42:16.668Z,59.29
2022-09-09T06:45:05.903Z,59.37
2022-09-09T06:48:02.844Z,59.41
2022-09-09T06:50:50.794Z,59.74
2022-09-09T06:53:39.619Z,59.85
2022-09-09T06:56:28.945Z,59.99
2022-09-09T06:59:16.696Z,60.11
2022-09-09T07:02:04.586Z,60.07
2022-09-09T07:04:52.040Z,60.65
2022-09-09T07:07:37.917Z,60.90
2022-09-09T07:10:25.267Z,60.71
2022-09-09T07:13:11.037Z,60.95
2022-09-09T07:16:12.490Z,60.80
2022-09-09T07:19:01.655Z,61.27
2022-09-09T07:21:47.643Z,61.21
2022-09-09T07:24:38.176Z,61.37
2022-09-09T07:27:23.655Z,61.03
2022-09-09T07:30:10.799Z,60.74
2022-09-09T07:32:58.161Z,61.07
2022-09-09T07:35:47.423Z,60.91
2022-09-09T07:38:44.596Z,61.15
2022-09-09T07:41:37.190Z,60.77
2022-09-09T07:44:23.311Z,60.97
2022-09-09T07:47:16.293Z,60.90
2022-09-09T07:50:07.386Z,60.88
2022-09-09T07:52:54.484Z,61.32
2022-09-09T07:55:41.500Z,61.57
2022-09-09T07:58:27.933Z,62.22
2022-09-09T08:01:19.027Z,62.87
2022-09-09T08:04:08.155Z,63.92
2022-09-09T08:06:58.171Z,64.71
2022-09-09T08:09:44.921Z,65.19
2022-09-09T08:12:37.269Z,65.63
2022-09-09T08:15:22.963Z,66.14
2022-09-09T08:18:08.345Z,66.29
2022-09-09T08:20:54.443Z,66.58
2022-09-09T08:23:44.278Z,67.00
2022-09-09T08:26:42.699Z,67.72
2022-09-09T08:29:40.094Z,67.93
2022-09-09T08:32:28.244Z,68.34
2022-09-09T08:35:14.897Z,68.39
2022-09-09T08:38:00.341Z,68.73
2022-09-09T08:40:52.074Z,68.85
2022-09-09T08:43:37.833Z,69.34
2022-09-09T08:46:47.929Z,69.31
2022-09-09T08:49:36.567Z,69.81
2022-09-09T08:52:37.187Z,70.08
2022-09-09T08:55:29.530Z,69.72
2022-09-09T08:58:22.407Z,70.57
2022-09-09T09:01:10.640Z,70.03
2022-09-09T09:04:03.654Z,70.45
2022-09-09T09:07:05.821Z,70.09
2022-09-09T09:10:11.937Z,70.81
2022-09-09T09:13:16.916Z,71.21
2022-09-09T09:16:14.135Z,71.00
2022-09-09T09:19:01.244Z,70.75
2022-09-09T09:21:59.532Z,70.36
2022-09-09T09:24:54.073Z,71.07
2022-09-09T09:27:56.004Z,70.98
2022-09-09T09:30:50.561Z,71.49
2022-09-09T09:33:41.585Z,72.04
2022-09-09T09:36:40.803Z,72.78
2022-09-09T09:42:35.201Z,73.74
2022-09-09T09:45:29.530Z,74.09
2022-09-09T09:48:16.801Z,74.24
2022-09-09T09:51:13.375Z,74.63
2022-09-09T09:54:37.033Z,73.99
2022-09-09T09:57:31.548Z,74.36
2022-09-09T10:00:24.146Z,74.50
2022-09-09T10:03:26.188Z,74.88
2022-09-09T10:06:12.688Z,75.11
2022-09-09T10:08:58.225Z,75.52
2022-09-09T10:12:05.679Z,75.65
2022-09-09T10:15:03.300Z,76.23
2022-09-09T10:18:03.859Z,76.02
2022-09-09T10:21:21.755Z,75.81
2022-09-09T10:24:26.318Z,75.58
2022-09-09T10:27:31.693Z,75.49
2022-09-09T10:30:41.080Z,76.31
2022-09-09T10:33:38.476Z,76.32
2022-09-09T10:36:29.402Z,76.56
2022-09-09T10:39:42.141Z,77.19
2022-09-09T10:42:32.460Z,77.17
2022-09-09T10:45:26.527Z,77.07
2022-09-09T10:48:50.644Z,77.42
2022-09-09T10:51:56.068Z,77.74
2022-09-09T10:55:11.246Z,77.74
2022-09-09T10:58:06.907Z,78.05
2022-09-09T11:01:03.751Z,78.18
2022-09-09T11:04:00.265Z,78.55
2022-09-09T11:06:53.367Z,78.83
2022-09-09T11:09:53.899Z,78.94
2022-09-09T11:12:44.766Z,79.41
2022-09-09T11:15:45.675Z,79.93
2022-09-09T11:18:37.549Z,80.17
2022-09-09T11:21:31.047Z,80.29
2022-09-09T11:24:24.477Z,80.84
2022-09-09T11:27:22.009Z,80.64
2022-09-09T11:30:37.837Z,80.77
2022-09-09T11:33:58.710Z,80.77
2022-09-09T11:37:22.789Z,81.27
2022-09-09T11:40:29.537Z,80.96
2022-09-09T11:43:43.397Z,81.26
2022-09-09T11:46:41.068Z,81.10
2022-09-09T11:49:32.468Z,81.47
2022-09-09T11:52:27.711Z,81.48
2022-09-09T11:55:28.598Z,81.62
2022-09-09T11:58:14.212Z,81.29
2022-09-09T12:00:59.986Z,81.52
2022-09-09T12:03:55.739Z,81.64
2022-09-09T12:06:57.136Z,81.29
2022-09-09T12:09:53.661Z,81.34
2022-09-09T12:12:43.781Z,80.92
2022-09-09T12:15:30.300Z,81.16
2022-09-09T12:18:26.565Z,81.36
2022-09-09T12:21:50.603Z,81.42
2022-09-09T12:24:49.105Z,81.79
2022-09-09T12:27:42.010Z,82.05
2022-09-09T12:30:35.724Z,82.26
2022-09-09T12:33:22.854Z,82.54
2022-09-09T12:36:13.843Z,82.44
2022-09-09T12:39:16.011Z,82.60
2022-09-09T12:42:01.525Z,82.74
2022-09-09T12:45:01.849Z,82.76
2022-09-09T12:48:09.498Z,82.76
2022-09-09T12:50:57.241Z,82.68
2022-09-09T12:53:43.019Z,82.67
2022-09-09T12:56:31.942Z,82.90
2022-09-09T12:59:26.284Z,83.19
2022-09-09T13:02:19.683Z,82.56
2022-09-09T13:05:18.101Z,82.36
2022-09-09T13:08:11.125Z,82.22
2022-09-09T13:11:08.359Z,82.13
2022-09-09T13:13:57.303Z,81.91
2022-09-09T13:16:43.333Z,82.08
2022-09-09T13:19:33.692Z,81.83
2022-09-09T13:22:39.004Z,81.77
2022-09-09T13:25:28.239Z,82.20
2022-09-09T13:28:23.782Z,82.58
2022-09-09T13:31:28.791Z,82.30
2022-09-09T13:34:31.216Z,82.36
2022-09-09T13:37:39.085Z,82.71
2022-09-09T13:40:25.465Z,82.72
2022-09-09T13:43:21.814Z,82.75
2022-09-09T13:46:27.955Z,82.74
2022-09-09T13:49:13.335Z,82.74
2022-09-09T13:52:17.823Z,83.17
2022-09-09T13:55:03.492Z,83.10
2022-09-09T13:57:53.055Z,83.64
2022-09-09T14:00:38.595Z,83.65
2022-09-09T14:03:24.346Z,83.51
2022-09-09T14:06:11.647Z,83.29
2022-09-09T14:08:57.405Z,83.61
2022-09-09T14:11:43.889Z,83.47
2022-09-09T14:14:29.606Z,83.13
2022-09-09T14:17:15.952Z,82.47
2022-09-09T14:20:01.607Z,82.54
2022-09-09T14:22:47.297Z,82.50
2022-09-09T14:25:34.500Z,82.30
2022-09-09T14:28:25.880Z,81.95
2022-09-09T14:31:25.452Z,82.05
2022-09-09T14:34:11.997Z,81.92
2022-09-09T14:36:58.059Z,82.27
2022-09-09T14:39:45.304Z,82.31
2022-09-09T14:42:31.352Z,82.39
2022-09-09T14:45:17.439Z,82.68
2022-09-09T14:48:05.022Z,82.55
2022-09-09T14:50:50.658Z,82.32
2022-09-09T14:53:36.026Z,82.36
2022-09-09T14:56:24.072Z,82.40
2022-09-09T14:59:09.558Z,82.35
2022-09-09T15:01:55.186Z,82.52
2022-09-09T15:04:40.664Z,82.52
2022-09-09T15:07:27.630Z,82.19
2022-09-09T15:10:13.612Z,82.39
2022-09-09T15:12:58.928Z,82.25
2022-09-09T15:15:44.998Z,82.82
2022-09-09T15:18:30.217Z,83.03
2022-09-09T15:21:17.900Z,83.31
2022-09-09T15:24:05.367Z,83.21
2022-09-09T15:26:51.208Z,83.58
2022-09-09T15:29:36.830Z,83.85
2022-09-09T15:32:22.531Z,83.79
2022-09-09T15:35:10.764Z,83.86
2022-09-09T15:38:06.039Z,83.95
2022-09-09T15:40:58.238Z,83.84
2022-09-09T15:43:47.334Z,83.70
2022-09-09T15:46:38.670Z,83.63
2022-09-09T15:49:26.904Z,83.71
2022-09-09T15:52:13.269Z,83.39
2022-09-09T15:54:59.443Z,83.38
2022-09-09T15:57:44.794Z,83.82
2022-09-09T16:00:30.738Z,84.20
2022-09-09T16:03:16.326Z,83.79
2022-09-09T16:06:02.470Z,84.09
2022-09-09T16:08:54.594Z,83.87
2022-09-09T16:11:40.415Z,83.99
2022-09-09T16:14:27.161Z,83.75
2022-09-09T16:17:13.224Z,83.78
2022-09-09T16:19:58.807Z,83.70
2022-09-09T16:22:44.541Z,83.86
2022-09-09T16:25:30.175Z,83.56
2022-09-09T16:28:16.320Z,83.19
2022-09-09T16:31:06.032Z,83.36
2022-09-09T16:33:52.931Z,83.11
2022-09-09T16:36:41.415Z,83.39
2022-09-09T16:39:27.559Z,83.53
2022-09-09T16:42:13.775Z,83.46
2022-09-09T16:44:59.066Z,83.37
2022-09-09T16:47:45.557Z,83.46
2022-09-09T16:50:32.009Z,83.59
2022-09-09T16:53:17.788Z,83.85
2022-09-09T16:56:11.556Z,84.25
2022-09-09T16:58:59.497Z,84.44
2022-09-09T17:01:47.181Z,84.55
2022-09-09T17:04:33.618Z,84.71
2022-09-09T17:07:20.354Z,85.07
2022-09-09T17:10:07.043Z,85.52
2022-09-09T17:12:53.050Z,85.28
2022-09-09T17:15:43.800Z,85.06
2022-09-09T17:18:29.833Z,85.34
2022-09-09T17:21:17.885Z,85.13
2022-09-09T17:24:04.060Z,85.23
2022-09-09T17:26:49.786Z,85.19
2022-09-09T17:29:36.941Z,85.01
2022-09-09T17:32:23.149Z,84.97
2022-09-09T17:35:09.462Z,85.00
2022-09-09T17:37:55.823Z,84.71
2022-09-09T17:40:41.400Z,85.01
2022-09-09T17:43:26.837Z,85.27
2022-09-09T17:46:16.176Z,84.90
2022-09-09T17:49:10.939Z,84.29
2022-09-09T17:51:57.174Z,83.92
2022-09-09T17:54:42.627Z,83.89
2022-09-09T17:57:28.840Z,83.93
2022-09-09T18:00:15.021Z,83.68
2022-09-09T18:03:03.350Z,83.59
2022-09-09T18:05:49.089Z,83.40
2022-09-09T18:08:37.026Z,83.41
2022-09-09T18:11:26.043Z,83.15
2022-09-09T18:14:15.604Z,83.46
2022-09-09T18:17:04.213Z,83.38
2022-09-09T18:19:50.107Z,83.33
2022-09-09T18:22:35.867Z,83.51
2022-09-09T18:25:21.626Z,83.32
2022-09-09T18:28:08.529Z,83.33
2022-09-09T18:30:54.252Z,83.38
2022-09-09T18:33:43.478Z,82.90
2022-09-09T18:36:32.501Z,83.17
2022-09-09T18:39:20.034Z,83.11
2022-09-09T18:42:06.795Z,82.87
2022-09-09T18:44:52.711Z,82.76
2022-09-09T18:47:38.645Z,82.72
2022-09-09T18:50:24.215Z,83.03
2022-09-09T18:53:11.041Z,83.33
2022-09-09T18:56:02.164Z,83.07
2022-09-09T18:58:52.258Z,83.44
2022-09-09T19:01:39.332Z,83.48
2022-09-09T19:04:27.671Z,82.97
2022-09-09T19:07:14.018Z,83.02
2022-09-09T19:09:59.648Z,82.60
2022-09-09T19:12:45.234Z,82.59
2022-09-09T19:15:33.187Z,82.49
2022-09-09T19:18:18.631Z,82.23
2022-09-09T19:21:18.285Z,82.25
2022-09-09T19:24:17.738Z,81.95
2022-09-09T19:27:06.800Z,81.85
2022-09-09T19:29:56.758Z,81.37
2022-09-09T19:32:53.133Z,81.65
2022-09-09T19:35:39.546Z,81.68
2022-09-09T19:38:26.399Z,81.45
2022-09-09T19:41:15.348Z,81.57
2022-09-09T19:44:06.037Z,81.52
2022-09-09T19:46:52.690Z,81.80
2022-09-09T19:49:38.552Z,81.85
2022-09-09T19:52:23.770Z,82.11
2022-09-09T19:55:10.016Z,81.77
2022-09-09T19:57:55.436Z,82.04
2022-09-09T20:00:40.830Z,82.10
2022-09-09T20:03:26.398Z,82.06
2022-09-09T20:06:14.086Z,82.19
2022-09-09T20:09:00.323Z,82.00
2022-09-09T20:11:47.388Z,82.13
2022-09-09T20:14:37.264Z,81.61
2022-09-09T20:17:25.082Z,81.40
2022-09-09T20:20:10.683Z,81.61
2022-09-09T20:22:57.473Z,80.79
2022-09-09T20:25:44.197Z,80.83
2022-09-09T20:28:30.180Z,80.71
2022-09-09T20:31:19.004Z,80.68
2022-09-09T20:34:06.149Z,80.62
2022-09-09T20:36:51.520Z,80.16
2022-09-09T20:39:37.364Z,80.47
2022-09-09T20:42:22.821Z,80.55
2022-09-09T20:45:12.227Z,80.26
2022-09-09T20:47:57.853Z,80.45
2022-09-09T20:50:43.131Z,80.50
2022-09-09T20:53:28.581Z,80.57
2022-09-09T20:56:17.050Z,80.64
2022-09-09T20:59:02.757Z,80.52
2022-09-09T21:01:48.723Z,80.71
2022-09-09T21:04:34.277Z,80.36
2022-09-09T21:07:19.575Z,80.25
2022-09-09T21:10:05.655Z,80.24
2022-09-09T21:12:50.962Z,80.23
2022-09-09T21:15:36.368Z,80.17
2022-09-09T21:18:23.063Z,80.38
2022-09-09T21:21:08.642Z,80.50
2022-09-09T21:24:00.658Z,80.14
2022-09-09T21:26:46.218Z,80.41
2022-09-09T21:29:31.763Z,80.34
2022-09-09T21:32:17.908Z,80.15
2022-09-09T21:35:03.906Z,79.95
2022-09-09T21:37:49.621Z,79.96
2022-09-09T21:40:39.330Z,80.33
2022-09-09T21:43:24.655Z,79.99
2022-09-09T21:46:12.447Z,80.09
2022-09-09T21:48:58.712Z,79.75
2022-09-09T21:51:43.991Z,79.46
2022-09-09T21:54:31.679Z,79.47
2022-09-09T21:57:19.763Z,79.39
2022-09-09T22:00:12.588Z,79.36
2022-09-09T22:03:02.726Z,79.09
2022-09-09T22:05:53.274Z,79.36
2022-09-09T22:08:39.314Z,79.05
2022-09-09T22:11:25.323Z,78.79
2022-09-09T22:14:10.728Z,79.04
2022-09-09T22:16:56.455Z,78.93
2022-09-09T22:19:41.876Z,78.41
2022-09-09T22:22:27.633Z,78.70
2022-09-09T22:25:13.219Z,78.64
2022-09-09T22:27:58.697Z,78.45
2022-09-09T22:30:43.916Z,78.87
2022-09-09T22:33:29.606Z,78.88
2022-09-09T22:36:15.285Z,79.18
2022-09-09T22:39:01.200Z,79.05
2022-09-09T22:41:48.074Z,79.13
2022-09-09T22:44:34.615Z,79.14
2022-09-09T22:47:20.206Z,79.32
2022-09-09T22:50:06.153Z,79.37
2022-09-09T22:52:52.606Z,79.27
2022-09-09T22:55:37.985Z,79.09
2022-09-09T22:58:23.272Z,79.43
2022-09-09T23:01:17.810Z,79.47
2022-09-09T23:04:03.387Z,79.81
2022-09-09T23:06:48.730Z,79.36
2022-09-09T23:09:34.334Z,79.40
2022-09-09T23:12:20.608Z,79.52
2022-09-09T23:15:10.564Z,79.79
2022-09-09T23:17:56.029Z,79.63
2022-09-09T23:20:43.059Z,79.94
2022-09-09T23:23:28.955Z,80.21
2022-09-09T23:26:20.231Z,80.11
2022-09-09T23:29:05.641Z,80.22
2022-09-09T23:31:51.000Z,80.67
2022-09-09T23:34:36.406Z,80.20
2022-09-09T23:37:21.621Z,80.16
2022-09-09T23:40:07.829Z,80.26
2022-09-09T23:42:55.262Z,80.45
2022-09-09T23:45:41.168Z,79.95
2022-09-09T23:48:30.038Z,79.61
2022-09-09T23:51:17.372Z,79.68
2022-09-09T23:54:05.286Z,79.42
2022-09-09T23:56:50.756Z,79.52
2022-09-09T23:59:36.037Z,79.35
